Time;durP1;ratioP1;P1;durP2;ratioP2;P2;SDS_P1;SDS_P2;PMS_P1;PMS_P2;Temp;Humidity;BMP_temperature;BMP_pressure;BME280_temperature;BME280_humidity;BME280_pressure;Samples;Min_cycle;Max_cycle;Signal;HPM_P1;HPM_P2
2023/03/14 00:01:15;;;;;;;;;;;;;;;16.24;44.97;98504.31;4909515;28;98091;-72
2023/03/14 00:03:42;;;;;;;;;;;;;;;16.23;45.08;98508.16;4940647;28;98139;-67
2023/03/14 00:06:08;;;;;;;;;;;;;;;16.20;45.13;98496.88;4908846;28;98638;-72
2023/03/14 00:08:34;;;;;;;;;;;;;;;16.19;45.11;98500.72;4918616;28;98332;-69
2023/03/14 00:11:08;;;;;;;;;;;;;;;16.19;45.05;98540.69;4926522;28;99648;-68
2023/03/14 00:13:34;;;;;;;;;;;;;;;16.18;45.15;98525.53;4921644;28;98226;-68
2023/03/14 00:16:06;;;;;;;;;;;;;;;16.15;45.20;98518.88;4926535;28;98248;-71
2023/03/14 00:18:33;;;;;;;;;;;;;;;16.16;45.20;98506.09;4910137;28;97874;-68
2023/03/14 00:21:00;;;;;;;;;;;;;;;16.15;45.20;98504.47;4920434;28;98226;-68
2023/03/14 00:23:30;;;;;;;;;;;;;;;16.14;45.14;98494.75;4908046;28;99384;-72
2023/03/14 00:26:03;;;;;;;;;;;;;;;16.15;45.08;98482.75;4917081;28;99703;-71
2023/03/14 00:28:29;;;;;;;;;;;;;;;16.14;45.06;98475.72;4914954;28;98191;-67
2023/03/14 00:30:55;;;;;;;;;;;;;;;16.12;45.11;98467.94;4922209;28;98257;-72
2023/03/14 00:33:22;;;;;;;;;;;;;;;16.12;45.24;98456.28;4905303;28;99140;-71
2023/03/14 00:35:56;;;;;;;;;;;;;;;16.11;45.23;98462.84;4909960;28;98069;-72
2023/03/14 00:38:24;;;;;;;;;;;;;;;16.10;45.13;98462.06;4924105;28;98024;-71
2023/03/14 00:40:53;;;;;;;;;;;;;;;16.10;45.16;98458.56;4911253;28;98099;-71
2023/03/14 00:43:22;;;;;;;;;;;;;;;16.08;45.16;98456.19;4938988;28;99232;-71
2023/03/14 00:45:52;;;;;;;;;;;;;;;16.07;45.19;98462.78;4911995;28;99346;-69
2023/03/14 00:48:19;;;;;;;;;;;;;;;16.07;45.06;98449.19;4910072;28;98007;-68
2023/03/14 00:50:45;;;;;;;;;;;;;;;16.05;45.12;98445.25;4910479;28;98492;-68
2023/03/14 00:53:11;;;;;;;;;;;;;;;16.05;45.11;98459.63;4906339;28;98293;-69
2023/03/14 00:55:39;;;;;;;;;;;;;;;16.05;45.34;98456.91;4909319;28;98570;-72
2023/03/14 00:58:06;;;;;;;;;;;;;;;16.05;45.34;98456.91;4921839;28;98185;-71
2023/03/14 01:00:32;;;;;;;;;;;;;;;16.04;45.24;98468.91;4934746;28;98104;-71
2023/03/14 01:02:59;;;;;;;;;;;;;;;16.04;45.29;98477.06;4908495;28;98749;-72
2023/03/14 01:05:25;;;;;;;;;;;;;;;16.04;45.14;98476.28;4907428;28;98246;-69
2023/03/14 01:07:52;;;;;;;;;;;;;;;16.04;45.33;98471.63;4900900;28;98983;-68
2023/03/14 01:10:18;;;;;;;;;;;;;;;16.03;45.35;98471.97;4908476;28;98420;-69
2023/03/14 01:12:45;;;;;;;;;;;;;;;16.04;45.20;98476.28;4921144;28;98306;-69
2023/03/14 01:15:12;;;;;;;;;;;;;;;16.03;45.24;98480.13;4906176;28;98072;-72
2023/03/14 01:17:39;;;;;;;;;;;;;;;16.03;45.27;98480.13;4900502;28;98203;-73
2023/03/14 01:20:08;;;;;;;;;;;;;;;16.02;45.29;98489.41;4932980;28;98170;-69
2023/03/14 01:22:35;;;;;;;;;;;;;;;16.02;45.14;98486.69;4908482;28;99737;-72
2023/03/14 01:25:02;;;;;;;;;;;;;;;16.00;45.31;98484.34;4910783;28;98457;-69
2023/03/14 01:27:29;;;;;;;;;;;;;;;15.99;45.10;98488.19;4916093;28;98159;-72
2023/03/14 01:29:55;;;;;;;;;;;;;;;15.98;45.13;98475.75;4902434;28;98695;-72
2023/03/14 01:32:23;;;;;;;;;;;;;;;15.98;45.26;98477.66;4907599;28;100908;-71
2023/03/14 01:34:50;;;;;;;;;;;;;;;15.95;45.40;98477.25;4924079;28;98021;-71
2023/03/14 01:37:16;;;;;;;;;;;;;;;15.95;45.28;98479.16;4930596;28;99428;-68
2023/03/14 01:39:42;;;;;;;;;;;;;;;15.95;45.14;98490.00;4927191;28;99678;-72
2023/03/14 01:42:09;;;;;;;;;;;;;;;15.94;45.20;98496.59;4906935;28;98494;-72
2023/03/14 01:44:52;;;;;;;;;;;;;;;15.94;45.30;98493.88;4914955;28;98462;-72
2023/03/14 01:47:19;;;;;;;;;;;;;;;15.92;45.33;98494.25;4904827;28;98196;-71
2023/03/14 01:49:47;;;;;;;;;;;;;;;15.94;45.40;98499.31;4931377;28;98828;-72
2023/03/14 01:52:18;;;;;;;;;;;;;;;15.92;45.21;98499.69;4909889;28;97979;-71
2023/03/14 01:54:48;;;;;;;;;;;;;;;15.93;45.31;98495.03;4924429;28;98151;-73
2023/03/14 01:57:23;;;;;;;;;;;;;;;15.91;45.46;98502.72;4904782;28;98148;-72
2023/03/14 02:00:04;;;;;;;;;;;;;;;15.90;45.24;98501.94;4924849;28;97990;-68
2023/03/14 02:02:30;;;;;;;;;;;;;;;15.90;45.43;98501.94;4924126;28;99514;-72
2023/03/14 02:04:57;;;;;;;;;;;;;;;15.91;45.28;98502.72;4923176;28;98141;-68
2023/03/14 02:07:27;;;;;;;;;;;;;;;15.90;45.22;98493.78;4906285;28;97970;-69
2023/03/14 02:09:54;;;;;;;;;;;;;;;15.90;45.31;98488.34;4924658;28;98116;-72
2023/03/14 02:12:20;;;;;;;;;;;;;;;15.90;45.39;98487.56;4923337;28;98358;-69
2023/03/14 02:14:47;;;;;;;;;;;;;;;15.90;45.31;98493.00;4921637;28;98274;-69
2023/03/14 02:17:15;;;;;;;;;;;;;;;15.90;45.29;98493.00;4911560;28;98338;-72
2023/03/14 02:19:57;;;;;;;;;;;;;;;15.89;45.41;98486.00;4921919;28;98350;-73
2023/03/14 02:22:23;;;;;;;;;;;;;;;15.89;45.35;98484.06;4924223;28;101188;-73
2023/03/14 02:25:33;;;;;;;;;;;;;;;15.88;45.32;98485.22;4894626;28;99528;-73
2023/03/14 02:28:00;;;;;;;;;;;;;;;15.89;45.43;98475.13;4859210;28;100557;-69
2023/03/14 02:30:28;;;;;;;;;;;;;;;15.88;45.38;98477.06;4835932;28;98353;-72
2023/03/14 02:33:08;;;;;;;;;;;;;;;15.88;45.34;98466.19;4866383;28;99096;-71
2023/03/14 02:35:56;;;;;;;;;;;;;;;15.87;45.32;98452.94;4908202;28;97871;-71
2023/03/14 02:38:35;;;;;;;;;;;;;;;15.88;45.16;98449.13;4923040;28;98474;-71
2023/03/14 02:41:02;;;;;;;;;;;;;;;15.87;45.45;98455.66;4935278;28;98287;-72
2023/03/14 02:43:28;;;;;;;;;;;;;;;15.88;45.41;98459.97;4905012;28;98440;-69
2023/03/14 02:45:54;;;;;;;;;;;;;;;15.87;45.52;98447.50;4905270;28;98163;-69
2023/03/14 02:48:24;;;;;;;;;;;;;;;15.86;45.45;98449.44;4920943;28;103146;-71
2023/03/14 02:50:53;;;;;;;;;;;;;;;15.85;45.47;98450.59;4922710;28;97964;-72
2023/03/14 02:53:21;;;;;;;;;;;;;;;15.85;45.33;98445.16;4907422;28;98137;-70
2023/03/14 02:55:49;;;;;;;;;;;;;;;15.85;45.43;98452.53;4918770;28;97996;-72
2023/03/14 02:58:15;;;;;;;;;;;;;;;15.85;45.42;98456.03;4906425;28;99563;-69
2023/03/14 03:00:41;;;;;;;;;;;;;;;15.84;45.36;98454.47;4936444;28;99686;-72
2023/03/14 03:03:08;;;;;;;;;;;;;;;15.84;45.46;98451.75;4904895;28;98285;-69
2023/03/14 03:05:34;;;;;;;;;;;;;;;15.83;45.56;98450.13;4901675;28;98780;-72
2023/03/14 03:08:00;;;;;;;;;;;;;;;15.84;45.35;98442.81;4911114;28;98294;-72
2023/03/14 03:10:27;;;;;;;;;;;;;;;15.83;45.30;98446.63;4926408;28;98641;-72
2023/03/14 03:12:54;;;;;;;;;;;;;;;15.83;45.28;98433.84;4924592;28;98352;-69
2023/03/14 03:15:20;;;;;;;;;;;;;;;15.82;45.37;98429.56;4939743;28;98198;-69
2023/03/14 03:17:49;;;;;;;;;;;;;;;15.82;45.48;98423.34;4927830;28;98100;-72
2023/03/14 03:20:16;;;;;;;;;;;;;;;15.82;45.59;98423.34;4925320;28;98020;-72
2023/03/14 03:22:45;;;;;;;;;;;;;;;15.81;45.44;98410.91;4922492;28;99065;-72
2023/03/14 03:25:11;;;;;;;;;;;;;;;15.80;45.40;98417.47;4923752;28;99579;-72
2023/03/14 03:27:38;;;;;;;;;;;;;;;15.80;45.49;98418.28;4922639;28;98007;-71
2023/03/14 03:30:05;;;;;;;;;;;;;;;15.80;45.34;98423.69;4909092;28;99598;-71
2023/03/14 03:32:32;;;;;;;;;;;;;;;15.80;45.59;98431.84;4934901;28;98057;-71
2023/03/14 03:34:59;;;;;;;;;;;;;;;15.79;45.51;98427.53;4926105;28;98814;-69
2023/03/14 03:37:25;;;;;;;;;;;;;;;15.79;45.54;98413.16;4928601;28;98272;-70
2023/03/14 03:39:52;;;;;;;;;;;;;;;15.79;45.46;98408.53;4912543;28;99110;-72
2023/03/14 03:42:19;;;;;;;;;;;;;;;15.80;45.40;98417.47;4905850;28;99716;-70
2023/03/14 03:44:45;;;;;;;;;;;;;;;15.79;45.46;98407.72;4895279;28;98053;-72
2023/03/14 03:47:11;;;;;;;;;;;;;;;15.79;45.63;98408.53;4944176;28;98858;-69
2023/03/14 03:49:38;;;;;;;;;;;;;;;15.79;45.36;98407.72;4905332;28;98405;-71
2023/03/14 03:52:04;;;;;;;;;;;;;;;15.80;45.44;98422.88;4907731;28;98109;-71
2023/03/14 03:54:30;;;;;;;;;;;;;;;15.79;45.40;98413.16;4923332;28;98653;-69
2023/03/14 03:56:57;;;;;;;;;;;;;;;15.78;45.56;98427.91;4911107;28;100235;-71
2023/03/14 03:59:23;;;;;;;;;;;;;;;15.77;45.42;98420.91;4921573;28;98216;-72
2023/03/14 04:01:50;;;;;;;;;;;;;;;15.76;45.56;98422.81;4922485;28;98034;-71
2023/03/14 04:04:16;;;;;;;;;;;;;;;15.76;45.39;98422.81;4923856;28;99514;-71
2023/03/14 04:06:43;;;;;;;;;;;;;;;15.75;45.50;98420.44;4920927;28;98266;-71
2023/03/14 04:09:10;;;;;;;;;;;;;;;15.75;45.51;98409.56;4908999;28;98373;-69
2023/03/14 04:11:37;;;;;;;;;;;;;;;15.74;45.53;98411.50;4910963;28;97969;-72
2023/03/14 04:14:03;;;;;;;;;;;;;;;15.74;45.39;98406.06;4925006;28;97953;-69
2023/03/14 04:16:31;;;;;;;;;;;;;;;15.74;45.43;98394.44;4908074;28;98910;-69
2023/03/14 04:18:58;;;;;;;;;;;;;;;15.73;45.38;98399.06;4907728;28;98325;-71
2023/03/14 04:21:24;;;;;;;;;;;;;;;15.73;45.55;98418.09;4920686;28;99009;-72
2023/03/14 04:23:50;;;;;;;;;;;;;;;15.73;45.48;98409.16;4903445;28;100864;-72
2023/03/14 04:26:17;;;;;;;;;;;;;;;15.72;45.62;98389.34;4909467;28;98342;-69
2023/03/14 04:28:43;;;;;;;;;;;;;;;15.72;45.37;98394.78;4906483;28;98159;-71
2023/03/14 04:31:10;;;;;;;;;;;;;;;15.71;45.44;98407.56;4919636;28;97912;-71
2023/03/14 04:33:38;;;;;;;;;;;;;;;15.71;45.59;98406.78;4905772;28;98260;-71
2023/03/14 04:36:05;;;;;;;;;;;;;;;15.71;45.56;98396.69;4909539;28;98811;-71
2023/03/14 04:38:32;;;;;;;;;;;;;;;15.70;45.48;98395.13;4902889;28;98067;-71
2023/03/14 04:40:59;;;;;;;;;;;;;;;15.69;45.54;98393.56;4905197;28;97980;-71
2023/03/14 04:43:25;;;;;;;;;;;;;;;15.72;45.52;98397.50;4936304;28;98067;-70
2023/03/14 04:45:55;;;;;;;;;;;;;;;15.70;45.43;98392.41;4934934;28;97937;-72
2023/03/14 04:48:21;;;;;;;;;;;;;;;15.72;45.56;98392.06;4909839;28;99209;-71
2023/03/14 04:50:48;;;;;;;;;;;;;;;15.71;45.34;98396.69;4920415;28;98738;-71
2023/03/14 04:53:15;;;;;;;;;;;;;;;15.72;45.39;98389.34;4908013;28;98458;-70
2023/03/14 04:55:41;;;;;;;;;;;;;;;15.72;45.41;98389.34;4907339;28;103082;-70
2023/03/14 04:58:07;;;;;;;;;;;;;;;15.72;45.48;98383.94;4919300;28;98359;-71
2023/03/14 05:00:33;;;;;;;;;;;;;;;15.74;45.51;98386.28;4904301;28;98106;-70
2023/03/14 05:03:00;;;;;;;;;;;;;;;15.73;45.51;98374.63;4908567;28;99864;-70
2023/03/14 05:05:26;;;;;;;;;;;;;;;15.73;45.43;98382.78;4894803;28;100647;-71
2023/03/14 05:07:53;;;;;;;;;;;;;;;15.74;45.48;98378.13;4908211;28;99872;-73
2023/03/14 05:10:21;;;;;;;;;;;;;;;15.75;45.34;98360.69;4912992;28;98137;-71
2023/03/14 05:12:47;;;;;;;;;;;;;;;15.75;45.47;98366.13;4901596;28;98096;-70
2023/03/14 05:15:13;;;;;;;;;;;;;;;15.75;45.57;98350.63;4905254;28;98004;-71
2023/03/14 05:17:40;;;;;;;;;;;;;;;15.75;45.50;98347.91;4901258;28;99408;-70
2023/03/14 05:20:12;;;;;;;;;;;;;;;15.76;45.38;98352.22;4917503;28;98287;-70
2023/03/14 05:22:39;;;;;;;;;;;;;;;15.76;45.46;98363.06;4907598;28;98037;-70
2023/03/14 05:25:05;;;;;;;;;;;;;;;15.77;45.55;98367.34;4907069;28;98493;-70
2023/03/14 05:27:32;;;;;;;;;;;;;;;15.77;45.49;98359.22;4905542;28;98290;-70
2023/03/14 05:29:59;;;;;;;;;;;;;;;15.78;45.58;98370.84;4917735;28;99927;-70
2023/03/14 05:32:25;;;;;;;;;;;;;;;15.79;45.53;98370.50;4918362;28;98343;-70
2023/03/14 05:34:51;;;;;;;;;;;;;;;15.79;45.39;98377.84;4919406;28;98298;-70
2023/03/14 05:37:17;;;;;;;;;;;;;;;15.80;45.42;98372.09;4894686;28;98370;-70
2023/03/14 05:39:43;;;;;;;;;;;;;;;15.80;45.49;98360.41;4901888;28;98355;-71
2023/03/14 05:42:10;;;;;;;;;;;;;;;15.82;45.52;98358.16;4902081;28;99241;-71
2023/03/14 05:44:36;;;;;;;;;;;;;;;15.83;45.42;98349.63;4918961;28;97945;-71
2023/03/14 05:47:03;;;;;;;;;;;;;;;15.85;45.47;98344.66;4915262;28;98213;-71
2023/03/14 05:49:29;;;;;;;;;;;;;;;15.89;45.46;98352.88;4921337;28;97951;-70
2023/03/14 05:51:56;;;;;;;;;;;;;;;15.92;45.40;98352.97;4903959;28;98459;-70
2023/03/14 05:54:22;;;;;;;;;;;;;;;15.94;45.21;98356.09;4897849;28;103842;-71
2023/03/14 05:56:48;;;;;;;;;;;;;;;15.97;45.35;98351.13;4916768;28;98504;-71
2023/03/14 05:59:14;;;;;;;;;;;;;;;15.96;45.28;98347.63;4902256;28;98367;-70
2023/03/14 06:01:41;;;;;;;;;;;;;;;15.96;45.15;98353.06;4902073;28;98129;-70
2023/03/14 06:04:08;;;;;;;;;;;;;;;15.97;45.27;98353.84;4898418;28;99103;-71
2023/03/14 06:06:34;;;;;;;;;;;;;;;15.96;45.32;98355.78;4901620;28;98237;-71
2023/03/14 06:09:01;;;;;;;;;;;;;;;15.96;45.34;98363.91;4919200;28;99815;-71
2023/03/14 06:11:28;;;;;;;;;;;;;;;15.98;45.31;98369.00;4922696;28;98093;-70
2023/03/14 06:13:55;;;;;;;;;;;;;;;15.97;45.43;98381.78;4935908;28;98515;-70
2023/03/14 06:16:21;;;;;;;;;;;;;;;15.98;45.30;98380.66;4907037;28;100507;-70
2023/03/14 06:18:48;;;;;;;;;;;;;;;16.01;45.21;98385.38;4921846;28;99302;-70
2023/03/14 06:21:15;;;;;;;;;;;;;;;16.05;45.20;98380.81;4920340;28;99444;-70
2023/03/14 06:23:41;;;;;;;;;;;;;;;16.10;45.13;98385.97;4900764;28;99181;-71
2023/03/14 06:26:08;;;;;;;;;;;;;;;16.15;45.28;98385.72;4919670;28;98121;-71
2023/03/14 06:28:34;;;;;;;;;;;;;;;16.20;45.06;98379.22;4907617;28;98514;-71
2023/03/14 06:31:01;;;;;;;;;;;;;;;16.22;45.02;98371.47;4920236;28;98295;-71
2023/03/14 06:33:27;;;;;;;;;;;;;;;16.25;45.08;98375.41;4934690;28;98331;-72
2023/03/14 06:35:53;;;;;;;;;;;;;;;16.28;45.12;98369.28;4930511;28;97974;-70
2023/03/14 06:38:20;;;;;;;;;;;;;;;16.28;45.20;98375.50;4907402;28;99830;-70
2023/03/14 06:40:46;;;;;;;;;;;;;;;16.31;45.16;98380.22;4906428;28;98038;-70
2023/03/14 06:43:13;;;;;;;;;;;;;;;16.36;44.99;98376.44;4916867;28;98239;-70
2023/03/14 06:45:39;;;;;;;;;;;;;;;16.40;44.99;98386.25;4907576;28;98124;-70
2023/03/14 06:48:06;;;;;;;;;;;;;;;16.45;44.89;98385.19;4924645;28;98465;-69
2023/03/14 06:50:32;;;;;;;;;;;;;;;16.48;45.08;98392.63;4902907;28;98057;-70
2023/03/14 06:52:58;;;;;;;;;;;;;;;16.53;45.04;98383.41;4907576;28;98650;-70
2023/03/14 06:55:25;;;;;;;;;;;;;;;16.57;44.95;98385.03;4903908;28;102588;-70
2023/03/14 06:57:52;;;;;;;;;;;;;;;16.62;44.84;98386.69;4920924;28;98441;-69
2023/03/14 07:00:19;;;;;;;;;;;;;;;16.68;44.82;98388.00;4914611;28;102360;-71
2023/03/14 07:02:45;;;;;;;;;;;;;;;16.73;44.96;98412.22;4920045;28;98196;-70
2023/03/14 07:05:12;;;;;;;;;;;;;;;16.75;44.81;98409.94;4900385;28;98258;-70
2023/03/14 07:07:38;;;;;;;;;;;;;;;16.76;44.80;98406.06;4911108;28;100336;-70
2023/03/14 07:10:07;;;;;;;;;;;;;;;16.78;44.94;98394.81;4915513;28;98514;-70
2023/03/14 07:12:33;;;;;;;;;;;;;;;16.78;45.00;98400.25;4906650;28;98100;-71
2023/03/14 07:14:59;;;;;;;;;;;;;;;16.77;44.96;98394.03;4908410;28;98044;-71
2023/03/14 07:17:25;;;;;;;;;;;;;;;16.78;44.89;98402.97;4910007;28;99515;-71
2023/03/14 07:19:53;;;;;;;;;;;;;;;16.80;44.94;98406.13;4904899;28;98037;-70
2023/03/14 07:22:19;;;;;;;;;;;;;;;16.81;45.07;98404.97;4935127;28;101142;-70
2023/03/14 07:24:45;;;;;;;;;;;;;;;16.83;44.86;98394.53;4904370;28;99639;-70
2023/03/14 07:27:12;;;;;;;;;;;;;;;16.85;44.84;98392.25;4905550;28;98751;-70
2023/03/14 07:29:38;;;;;;;;;;;;;;;16.87;44.88;98393.47;4920637;28;99271;-70
2023/03/14 07:32:05;;;;;;;;;;;;;;;16.93;44.85;98402.13;4904029;28;98156;-71
2023/03/14 07:34:31;;;;;;;;;;;;;;;16.95;44.94;98404.50;4911734;28;98736;-70
2023/03/14 07:36:58;;;;;;;;;;;;;;;16.96;44.96;98403.34;4918874;28;98713;-71
2023/03/14 07:39:24;;;;;;;;;;;;;;;16.99;44.85;98413.50;4926233;28;97979;-70
2023/03/14 07:41:50;;;;;;;;;;;;;;;17.02;44.95;98404.63;4920391;28;98204;-70
2023/03/14 07:44:17;;;;;;;;;;;;;;;17.08;44.93;98405.91;4901815;28;98022;-70
2023/03/14 07:46:43;;;;;;;;;;;;;;;17.12;44.81;98409.47;4916706;28;98058;-71
2023/03/14 07:49:09;;;;;;;;;;;;;;;17.17;44.80;98409.19;4909376;28;99543;-69
2023/03/14 07:51:35;;;;;;;;;;;;;;;17.25;44.80;98400.03;4905196;28;97846;-71
2023/03/14 07:54:01;;;;;;;;;;;;;;;17.33;44.53;98393.56;4912202;28;98146;-70
2023/03/14 07:56:27;;;;;;;;;;;;;;;17.40;44.58;98388.22;4910056;28;98065;-70
2023/03/14 07:58:54;;;;;;;;;;;;;;;17.47;44.69;98392.22;4906343;28;98331;-71
2023/03/14 08:01:21;;;;;;;;;;;;;;;17.53;44.61;98383.41;4909945;28;98550;-70
2023/03/14 08:03:47;;;;;;;;;;;;;;;17.60;44.54;98391.66;4910500;28;98123;-70
2023/03/14 08:06:13;;;;;;;;;;;;;;;17.66;44.39;98386.72;4908009;28;98033;-70
2023/03/14 08:08:39;;;;;;;;;;;;;;;17.74;44.55;98384.91;4908056;28;99976;-71
2023/03/14 08:11:08;;;;;;;;;;;;;;;17.79;44.43;98390.84;4924360;28;98217;-71
2023/03/14 08:13:34;;;;;;;;;;;;;;;17.85;44.48;98373.03;4923494;28;98057;-70
2023/03/14 08:16:01;;;;;;;;;;;;;;;17.92;44.44;98388.72;4922345;28;97997;-71
2023/03/14 08:18:27;;;;;;;;;;;;;;;17.98;44.28;98389.19;4923007;28;99787;-71
2023/03/14 08:20:54;;;;;;;;;;;;;;;18.05;44.31;98401.00;4923176;28;98063;-71
2023/03/14 08:23:20;;;;;;;;;;;;;;;18.13;44.31;98408.13;4906363;28;98095;-71
2023/03/14 08:25:48;;;;;;;;;;;;;;;18.27;44.06;98396.63;4903557;28;98116;-71
2023/03/14 08:28:14;;;;;;;;;;;;;;;18.44;44.04;98397.25;4922452;28;98125;-71
2023/03/14 08:30:40;;;;;;;;;;;;;;;18.60;43.91;98389.69;4902867;28;98267;-70
2023/03/14 08:33:07;;;;;;;;;;;;;;;18.76;43.87;98390.31;4902807;28;98371;-71
2023/03/14 08:35:33;;;;;;;;;;;;;;;18.87;43.83;98388.50;4936151;28;98159;-71
2023/03/14 08:37:59;;;;;;;;;;;;;;;18.96;43.96;98385.47;4923455;28;98362;-70
2023/03/14 08:40:25;;;;;;;;;;;;;;;19.02;43.83;98383.97;4937626;28;98089;-70
2023/03/14 08:42:52;;;;;;;;;;;;;;;19.08;43.80;98384.41;4909951;28;98278;-70
2023/03/14 08:45:18;;;;;;;;;;;;;;;19.13;43.76;98384.84;4907727;28;100215;-71
2023/03/14 08:47:45;;;;;;;;;;;;;;;19.14;43.69;98388.41;4919277;28;99738;-71
2023/03/14 08:50:11;;;;;;;;;;;;;;;19.11;43.98;98380.94;4902890;28;99756;-70
2023/03/14 08:52:40;;;;;;;;;;;;;;;19.09;44.02;98386.75;4908720;28;98274;-70
2023/03/14 08:55:07;;;;;;;;;;;;;;;19.11;43.89;98373.53;4910375;28;99851;-70
2023/03/14 08:57:33;;;;;;;;;;;;;;;19.29;43.85;98379.16;4914884;28;99609;-70
2023/03/14 08:59:59;;;;;;;;;;;;;;;19.57;43.47;98381.41;4904462;28;98136;-71
2023/03/14 09:02:26;;;;;;;;;;;;;;;20.31;42.74;98385.06;4919974;28;99947;-71
2023/03/14 09:04:53;;;;;;;;;;;;;;;21.29;41.72;98385.88;4907130;28;98101;-71
2023/03/14 09:07:19;;;;;;;;;;;;;;;21.16;42.21;98392.91;4909470;28;98939;-71
2023/03/14 09:09:46;;;;;;;;;;;;;;;21.25;42.33;98393.28;4924866;28;99948;-72
2023/03/14 09:12:12;;;;;;;;;;;;;;;22.04;41.70;98391.41;4921274;28;99532;-71
2023/03/14 09:14:38;;;;;;;;;;;;;;;23.14;40.66;98399.75;4925019;28;97976;-72
2023/03/14 09:17:05;;;;;;;;;;;;;;;24.09;40.30;98407.72;4923878;28;98536;-72
2023/03/14 09:19:31;;;;;;;;;;;;;;;24.53;40.25;98401.44;4907740;28;97859;-71
2023/03/14 09:21:58;;;;;;;;;;;;;;;24.51;40.65;98405.78;4901340;28;98097;-72
2023/03/14 09:24:25;;;;;;;;;;;;;;;24.17;41.18;98400.97;4906214;28;99649;-71
2023/03/14 09:26:54;;;;;;;;;;;;;;;23.99;41.49;98410.19;4951022;28;99553;-71
2023/03/14 09:29:23;;;;;;;;;;;;;;;23.99;41.55;98415.69;4907410;28;99809;-72
2023/03/14 09:31:49;;;;;;;;;;;;;;;24.49;41.33;98406.19;4904723;28;98374;-71
2023/03/14 09:34:16;;;;;;;;;;;;;;;25.08;40.83;98405.09;4906836;28;98269;-71
2023/03/14 09:36:44;;;;;;;;;;;;;;;24.97;41.11;98411.53;4918287;28;98260;-72
2023/03/14 09:39:11;;;;;;;;;;;;;;;24.67;41.49;98412.25;4923465;28;99114;-71
2023/03/14 09:41:40;;;;;;;;;;;;;;;24.48;41.94;98407.38;4905400;28;99551;-73
2023/03/14 09:44:24;;;;;;;;;;;;;;;24.32;42.24;98407.13;4907598;28;98251;-71
2023/03/14 09:46:52;;;;;;;;;;;;;;;24.12;42.52;98412.41;4940781;28;98955;-72
2023/03/14 09:49:41;;;;;;;;;;;;;;;24.13;42.55;98412.03;4907463;28;98382;-71
2023/03/14 09:52:14;;;;;;;;;;;;;;;23.82;42.62;98408.38;4909253;28;99387;-72
2023/03/14 09:54:49;;;;;;;;;;;;;;;23.38;43.18;98409.81;4935828;28;100569;-71
2023/03/14 09:57:20;;;;;;;;;;;;;;;23.12;43.66;98421.34;4923112;28;99095;-71
2023/03/14 09:59:47;;;;;;;;;;;;;;;23.04;43.35;98415.13;4905445;28;97954;-71
2023/03/14 10:02:20;;;;;;;;;;;;;;;22.99;43.51;98410.81;4919950;28;98088;-72
2023/03/14 10:04:47;;;;;;;;;;;;;;;22.82;43.40;98408.91;4922421;28;99282;-71
2023/03/14 10:07:15;;;;;;;;;;;;;;;22.70;43.68;98418.34;4915934;28;98438;-71
2023/03/14 10:09:44;;;;;;;;;;;;;;;22.45;43.68;98414.91;4906934;28;98330;-71
2023/03/14 10:12:10;;;;;;;;;;;;;;;22.21;43.84;98417.31;4922701;28;98120;-71
2023/03/14 10:14:37;;;;;;;;;;;;;;;21.97;44.13;98421.59;4934279;28;98345;-71
2023/03/14 10:17:11;;;;;;;;;;;;;;;21.77;44.23;98414.91;4904205;28;98727;-71
2023/03/14 10:19:51;;;;;;;;;;;;;;;21.64;44.50;98413.75;4900672;28;98060;-71
2023/03/14 10:22:17;;;;;;;;;;;;;;;21.49;44.34;98399.25;4922390;28;98045;-72
2023/03/14 10:24:56;;;;;;;;;;;;;;;21.36;44.36;98414.50;4931935;28;98623;-71
2023/03/14 10:27:33;;;;;;;;;;;;;;;21.21;44.58;98417.16;4910457;28;98474;-71
2023/03/14 10:30:06;;;;;;;;;;;;;;;21.09;44.46;98418.28;4914507;28;98946;-72
2023/03/14 10:32:38;;;;;;;;;;;;;;;21.03;44.56;98417.13;4922739;28;97973;-72
2023/03/14 10:35:24;;;;;;;;;;;;;;;21.03;44.44;98419.84;4919718;28;98567;-72
2023/03/14 10:37:55;;;;;;;;;;;;;;;20.91;44.48;98414.72;4931052;28;98194;-71
2023/03/14 10:40:32;;;;;;;;;;;;;;;20.86;44.29;98419.78;4918769;28;99005;-71
2023/03/14 10:42:59;;;;;;;;;;;;;;;20.77;44.72;98418.19;4907275;28;98054;-71
2023/03/14 10:45:45;;;;;;;;;;;;;;;20.66;44.65;98422.03;4908681;28;98115;-71
2023/03/14 10:48:14;;;;;;;;;;;;;;;20.61;44.59;98411.47;4907165;28;98854;-71
2023/03/14 10:51:09;;;;;;;;;;;;;;;20.54;44.68;98409.47;4936191;28;98465;-71
2023/03/14 10:53:42;;;;;;;;;;;;;;;20.44;44.68;98410.19;4923097;28;97858;-71
2023/03/14 10:56:33;;;;;;;;;;;;;;;20.42;44.55;98407.03;4919535;28;98062;-71
2023/03/14 10:58:59;;;;;;;;;;;;;;;20.30;44.75;98408.91;4924922;28;98080;-72
2023/03/14 11:01:34;;;;;;;;;;;;;;;20.42;44.55;98412.50;4936067;28;97983;-71
2023/03/14 11:04:15;;;;;;;;;;;;;;;20.42;44.34;98399.59;4921419;28;98153;-71
2023/03/14 11:07:00;;;;;;;;;;;;;;;20.41;44.39;98400.00;4908324;28;98976;-71
2023/03/14 11:09:46;;;;;;;;;;;;;;;20.41;44.37;98400.00;4912578;28;98377;-71
2023/03/14 11:12:21;;;;;;;;;;;;;;;20.52;44.17;98398.13;4923237;28;99000;-71
2023/03/14 11:14:49;;;;;;;;;;;;;;;20.67;43.97;98398.97;4951275;28;97919;-72
2023/03/14 11:17:28;;;;;;;;;;;;;;;20.77;43.96;98398.25;4919263;28;97902;-71
2023/03/14 11:20:00;;;;;;;;;;;;;;;20.95;43.60;98406.53;4919322;28;98325;-71
2023/03/14 11:22:34;;;;;;;;;;;;;;;20.94;43.82;98397.50;4902861;28;98098;-71
2023/03/14 11:25:27;;;;;;;;;;;;;;;20.87;44.02;98397.50;4918743;28;98118;-71
2023/03/14 11:28:17;;;;;;;;;;;;;;;20.89;44.01;98397.88;4955166;28;98169;-72
2023/03/14 11:30:54;;;;;;;;;;;;;;;20.87;44.03;98393.97;4943465;28;98128;-74
2023/03/14 11:33:25;;;;;;;;;;;;;;;20.78;44.15;98392.38;4908572;28;98034;-72
2023/03/14 11:36:11;;;;;;;;;;;;;;;20.76;44.19;98394.72;4911421;28;98692;-71
2023/03/14 11:38:52;;;;;;;;;;;;;;;20.68;44.27;98392.34;4911004;28;98406;-71
2023/03/14 11:41:38;;;;;;;;;;;;;;;20.60;44.38;98388.78;4912058;28;97956;-71
2023/03/14 11:44:19;;;;;;;;;;;;;;;20.61;44.14;98384.09;4923976;28;101069;-71
2023/03/14 11:46:55;;;;;;;;;;;;;;;20.57;44.29;98387.59;4919966;28;98660;-72
2023/03/14 11:49:31;;;;;;;;;;;;;;;20.53;44.21;98384.06;4941015;28;99147;-71
2023/03/14 11:52:01;;;;;;;;;;;;;;;20.46;44.27;98383.97;4952746;28;98973;-72
2023/03/14 11:54:42;;;;;;;;;;;;;;;20.43;44.32;98381.22;4911406;28;97977;-71
2023/03/14 11:57:14;;;;;;;;;;;;;;;20.45;44.33;98374.22;4924010;28;100005;-71
2023/03/14 12:00:15;;;;;;;;;;;;;;;20.54;44.18;98379.38;4910102;28;98159;-71
2023/03/14 12:02:59;;;;;;;;;;;;;;;20.98;43.59;98365.44;4921331;28;98340;-71
2023/03/14 12:06:10;;;;;;;;;;;;;;;22.19;42.34;98364.00;4911870;28;98137;-72
2023/03/14 12:08:59;;;;;;;;;;;;;;;23.48;41.15;98359.47;4910549;28;98501;-71
2023/03/14 12:11:35;;;;;;;;;;;;;;;23.85;41.35;98360.00;4904935;28;98142;-71
2023/03/14 12:14:01;;;;;;;;;;;;;;;24.28;41.00;98354.06;4926355;28;98020;-72
2023/03/14 12:16:38;;;;;;;;;;;;;;;25.16;40.59;98354.22;4909142;28;97984;-73
2023/03/14 12:19:35;;;;;;;;;;;;;;;24.91;41.21;98351.78;4913863;28;98323;-71
2023/03/14 12:22:14;;;;;;;;;;;;;;;24.79;41.81;98350.34;4896266;28;98258;-72
2023/03/14 12:24:44;;;;;;;;;;;;;;;24.63;41.89;98363.94;4951600;28;97904;-71
2023/03/14 12:27:11;;;;;;;;;;;;;;;24.31;42.58;98356.03;4921145;28;97909;-72
2023/03/14 12:29:58;;;;;;;;;;;;;;;23.93;43.11;98350.50;4909591;28;98208;-72
2023/03/14 12:32:24;;;;;;;;;;;;;;;23.65;42.99;98348.75;4906448;28;98939;-72
2023/03/14 12:34:51;;;;;;;;;;;;;;;23.59;43.27;98345.66;4919758;28;98220;-71
2023/03/14 12:37:26;;;;;;;;;;;;;;;23.44;43.10;98334.00;4909857;28;98147;-72
2023/03/14 12:40:18;;;;;;;;;;;;;;;23.28;43.55;98336.47;4910330;28;98199;-73
2023/03/14 12:42:58;;;;;;;;;;;;;;;23.48;42.88;98334.75;4924441;28;98299;-72
2023/03/14 12:45:34;;;;;;;;;;;;;;;23.83;42.51;98340.38;4940180;28;98050;-72
2023/03/14 12:48:03;;;;;;;;;;;;;;;23.74;42.54;98338.13;4908542;28;99452;-72
2023/03/14 12:50:35;;;;;;;;;;;;;;;23.63;43.13;98340.13;4935240;28;98040;-72
2023/03/14 12:53:20;;;;;;;;;;;;;;;24.38;42.19;98343.00;4902670;28;98511;-71
2023/03/14 12:56:05;;;;;;;;;;;;;;;24.40;42.31;98346.09;4952428;28;98001;-73
2023/03/14 12:59:10;;;;;;;;;;;;;;;24.13;42.60;98348.75;4941590;28;97998;-73